Time;durP1;ratioP1;P1;durP2;ratioP2;P2;SDS_P1;SDS_P2;PMS_P1;PMS_P2;Temp;Humidity;BMP_temperature;BMP_pressure;BME280_temperature;BME280_humidity;BME280_pressure;Samples;Min_cycle;Max_cycle;Signal;HPM_P1;HPM_P2
2022/12/21 00:00:16;;;;;;;27.35;12.23;;;;;;;;;;6066844;23;20017;-82
2022/12/21 00:02:41;;;;;;;26.95;11.40;;;;;;;;;;6091916;23;20056;-83
2022/12/21 00:05:08;;;;;;;24.83;10.95;;;;;;;;;;6068574;23;20381;-83
2022/12/21 00:07:33;;;;;;;24.35;10.65;;;;;;;;;;6067162;23;20014;-83
2022/12/21 00:09:59;;;;;;;25.48;11.40;;;;;;;;;;6067559;23;20342;-82
2022/12/21 00:12:24;;;;;;;23.98;10.93;;;;;;;;;;6066738;23;20022;-82
2022/12/21 00:14:53;;;;;;;28.25;12.00;;;;;;;;;;6067605;23;20370;-82
2022/12/21 00:17:18;;;;;;;27.38;11.95;;;;;;;;;;6066355;23;20620;-81
2022/12/21 00:19:44;;;;;;;26.92;11.88;;;;;;;;;;6067683;23;20025;-82
2022/12/21 00:22:12;;;;;;;26.77;12.00;;;;;;;;;;6089718;23;20503;-82
2022/12/21 00:24:37;;;;;;;25.20;11.68;;;;;;;;;;6067668;23;20026;-83
2022/12/21 00:27:03;;;;;;;22.42;11.02;;;;;;;;;;6065779;23;20020;-84
2022/12/21 00:29:28;;;;;;;23.15;11.15;;;;;;;;;;6067584;23;20016;-82
2022/12/21 00:31:54;;;;;;;23.33;11.10;;;;;;;;;;6090512;23;20231;-82
2022/12/21 00:34:21;;;;;;;21.65;10.57;;;;;;;;;;6067624;23;20010;-82
2022/12/21 00:36:47;;;;;;;25.37;12.30;;;;;;;;;;6066611;23;20018;-85
2022/12/21 00:39:13;;;;;;;27.45;11.73;;;;;;;;;;6067815;23;20014;-83
2022/12/21 00:41:39;;;;;;;24.05;11.65;;;;;;;;;;6066935;23;20086;-82
2022/12/21 00:44:04;;;;;;;24.88;12.15;;;;;;;;;;6067242;23;20018;-83
2022/12/21 00:46:31;;;;;;;26.77;11.68;;;;;;;;;;6066616;23;20030;-82
2022/12/21 00:48:57;;;;;;;28.08;12.55;;;;;;;;;;6067150;23;20022;-82
2022/12/21 00:51:24;;;;;;;25.65;12.63;;;;;;;;;;6066472;23;20045;-82
2022/12/21 00:53:49;;;;;;;30.02;13.73;;;;;;;;;;6091466;23;20430;-82
2022/12/21 00:56:16;;;;;;;28.77;12.88;;;;;;;;;;6065938;23;20052;-83
2022/12/21 00:58:42;;;;;;;26.00;12.23;;;;;;;;;;6092003;23;20056;-83
2022/12/21 01:01:12;;;;;;;25.67;13.15;;;;;;;;;;6091009;23;20018;-83
2022/12/21 01:03:38;;;;;;;27.08;12.85;;;;;;;;;;6067384;23;20017;-82
2022/12/21 01:06:03;;;;;;;27.48;12.05;;;;;;;;;;6068212;23;20077;-82
2022/12/21 01:08:29;;;;;;;26.63;12.93;;;;;;;;;;6069243;23;20101;-82
2022/12/21 01:11:02;;;;;;;31.48;13.43;;;;;;;;;;6068264;23;20042;-83
2022/12/21 01:13:29;;;;;;;28.85;13.25;;;;;;;;;;6068507;23;20029;-82
2022/12/21 01:15:55;;;;;;;25.98;13.02;;;;;;;;;;6092696;23;20021;-84
2022/12/21 01:18:20;;;;;;;26.70;12.57;;;;;;;;;;6068789;23;20020;-83
2022/12/21 01:20:50;;;;;;;31.55;13.35;;;;;;;;;;6068712;23;20123;-84
2022/12/21 01:23:15;;;;;;;27.88;12.02;;;;;;;;;;6093367;23;20152;-83
2022/12/21 01:25:45;;;;;;;26.48;12.43;;;;;;;;;;6068339;23;20041;-83
2022/12/21 01:28:11;;;;;;;28.05;11.85;;;;;;;;;;6068838;23;20022;-83
2022/12/21 01:30:38;;;;;;;27.42;12.55;;;;;;;;;;6068652;23;20022;-83
2022/12/21 01:33:04;;;;;;;31.55;12.60;;;;;;;;;;6069187;23;20010;-83
2022/12/21 01:35:30;;;;;;;29.92;13.68;;;;;;;;;;6067413;23;20339;-84
2022/12/21 01:37:55;;;;;;;29.73;13.98;;;;;;;;;;6069067;23;20014;-84
2022/12/21 01:40:21;;;;;;;32.58;13.18;;;;;;;;;;6092536;23;20401;-84
2022/12/21 01:42:46;;;;;;;28.70;12.85;;;;;;;;;;6069631;23;20014;-85
2022/12/21 01:45:19;;;;;;;31.25;14.10;;;;;;;;;;6068399;23;20124;-83
2022/12/21 01:47:49;;;;;;;27.25;12.43;;;;;;;;;;6069385;23;20302;-83
2022/12/21 01:50:43;;;;;;;32.83;13.63;;;;;;;;;;6068306;23;20023;-83
2022/12/21 01:53:31;;;;;;;30.10;12.63;;;;;;;;;;6093254;23;20030;-84
2022/12/21 01:55:58;;;;;;;28.60;12.93;;;;;;;;;;6117734;23;20026;-84
2022/12/21 01:58:25;;;;;;;29.23;12.73;;;;;;;;;;6092427;23;20442;-83
2022/12/21 02:00:50;;;;;;;28.27;12.48;;;;;;;;;;6068242;23;20021;-83
2022/12/21 02:03:19;;;;;;;31.05;13.00;;;;;;;;;;6068745;23;20612;-84
2022/12/21 02:05:59;;;;;;;28.02;12.75;;;;;;;;;;6067416;23;20038;-84
2022/12/21 02:08:24;;;;;;;29.70;13.15;;;;;;;;;;6068692;23;20230;-85
2022/12/21 02:10:51;;;;;;;32.88;13.63;;;;;;;;;;6067376;23;20097;-84
2022/12/21 02:13:16;;;;;;;29.75;13.15;;;;;;;;;;6068441;23;20068;-83
2022/12/21 02:15:51;;;;;;;29.27;12.73;;;;;;;;;;6091584;23;20014;-84
2022/12/21 02:18:38;;;;;;;31.83;14.05;;;;;;;;;;6118103;23;20017;-84
2022/12/21 02:21:03;;;;;;;;;;;;;;;;;;6068032;23;20327;-84
2022/12/21 02:23:48;;;;;;;28.50;12.13;;;;;;;;;;6091898;23;19997;-85
2022/12/21 02:26:35;;;;;;;26.15;12.23;;;;;;;;;;6117511;23;20021;-84
2022/12/21 02:29:15;;;;;;;26.98;12.02;;;;;;;;;;6068828;23;20022;-84
2022/12/21 02:32:04;;;;;;;28.80;13.93;;;;;;;;;;6091712;23;20021;-85
2022/12/21 02:34:36;;;;;;;32.42;14.23;;;;;;;;;;6092751;23;20070;-85
2022/12/21 02:37:21;;;;;;;30.17;13.88;;;;;;;;;;6066978;23;20073;-84
2022/12/21 02:39:53;;;;;;;28.65;12.82;;;;;;;;;;6067842;23;20017;-84
2022/12/21 02:45:16;;;;;;;30.58;12.63;;;;;;;;;;6095888;23;20051;-84
2022/12/21 02:47:47;;;;;;;29.88;13.43;;;;;;;;;;6116685;23;20025;-84
2022/12/21 02:50:15;;;;;;;30.00;14.20;;;;;;;;;;6090418;23;20018;-84
2022/12/21 02:52:48;;;;;;;;;;;;;;;;;;6092590;23;20484;-84
2022/12/21 02:55:14;;;;;;;31.83;12.77;;;;;;;;;;6066545;23;19932;-84
2022/12/21 02:57:42;;;;;;;27.05;11.93;;;;;;;;;;6067336;23;20477;-84
2022/12/21 03:00:10;;;;;;;31.35;13.05;;;;;;;;;;6068603;23;20473;-83
2022/12/21 03:06:04;;;;;;;29.13;12.65;;;;;;;;;;6063606;23;20413;-84
2022/12/21 03:08:32;;;;;;;31.98;14.07;;;;;;;;;;6046799;23;20538;-84
2022/12/21 03:11:00;;;;;;;34.05;14.95;;;;;;;;;;6062539;23;20029;-84
2022/12/21 03:13:38;;;;;;;31.23;14.75;;;;;;;;;;6063414;23;20105;-84
2022/12/21 03:16:16;;;;;;;35.05;14.50;;;;;;;;;;6062605;23;20022;-83
2022/12/21 03:19:12;;;;;;;32.45;13.70;;;;;;;;;;6087035;23;20046;-84
2022/12/21 03:22:33;;;;;;;33.13;13.50;;;;;;;;;;6038860;23;20089;-85
2022/12/21 03:25:04;;;;;;;37.17;14.70;;;;;;;;;;5977382;23;20019;-84
2022/12/21 03:27:35;;;;;;;30.55;14.38;;;;;;;;;;6062081;23;20050;-83
2022/12/21 03:30:05;;;;;;;36.00;15.05;;;;;;;;;;6038987;23;20057;-84
2022/12/21 03:32:40;;;;;;;34.30;14.48;;;;;;;;;;6038399;23;20014;-84
2022/12/21 03:35:10;;;;;;;33.45;14.18;;;;;;;;;;6039154;23;20021;-85
2022/12/21 03:37:38;;;;;;;33.40;13.88;;;;;;;;;;6038780;23;20713;-84
2022/12/21 03:40:13;;;;;;;36.13;15.43;;;;;;;;;;6039053;23;20010;-83
2022/12/21 03:42:45;;;;;;;31.63;13.98;;;;;;;;;;6039608;23;20528;-83
2022/12/21 03:45:18;;;;;;;29.63;13.48;;;;;;;;;;6038993;23;20439;-85
2022/12/21 03:48:04;;;;;;;32.83;15.50;;;;;;;;;;6039141;23;20027;-83
2022/12/21 03:50:34;;;;;;;37.60;14.93;;;;;;;;;;6038593;23;20023;-83
2022/12/21 03:53:24;;;;;;;32.33;13.80;;;;;;;;;;6039804;23;20022;-84
2022/12/21 03:55:53;;;;;;;35.50;14.30;;;;;;;;;;6061684;23;20050;-83
2022/12/21 03:58:19;;;;;;;31.65;14.90;;;;;;;;;;6039046;23;20025;-84
2022/12/21 04:00:51;;;;;;;29.60;13.45;;;;;;;;;;6038650;23;20031;-82
2022/12/21 04:03:28;;;;;;;31.95;14.10;;;;;;;;;;6039028;23;20018;-82
2022/12/21 04:05:56;;;;;;;28.52;13.60;;;;;;;;;;6065071;23;20045;-84
2022/12/21 04:08:21;;;;;;;;;;;;;;;;;;6118294;23;20518;-84
2022/12/21 04:10:50;;;;;;;31.00;13.30;;;;;;;;;;6067299;23;19920;-83
2022/12/21 04:13:15;;;;;;;37.00;14.70;;;;;;;;;;6067879;23;20047;-83
2022/12/21 04:21:09;;;;;;;30.90;13.85;;;;;;;;;;6094538;23;20347;-83
2022/12/21 04:29:02;;;;;;;34.10;14.35;;;;;;;;;;6096020;23;20560;-83
2022/12/21 04:31:27;;;;;;;34.95;14.25;;;;;;;;;;6090688;23;20018;-84
2022/12/21 04:33:53;;;;;;;32.28;14.95;;;;;;;;;;6067862;23;20022;-84
2022/12/21 04:39:03;;;;;;;34.80;13.98;;;;;;;;;;6095270;23;20040;-83
2022/12/21 04:41:28;;;;;;;36.22;14.70;;;;;;;;;;6093812;23;20013;-83
2022/12/21 04:43:53;;;;;;;33.83;15.02;;;;;;;;;;6095625;23;20081;-83
2022/12/21 04:46:19;;;;;;;32.72;15.00;;;;;;;;;;6069957;23;20032;-83
2022/12/21 04:48:45;;;;;;;36.95;14.18;;;;;;;;;;6043712;23;20018;-83
2022/12/21 04:51:16;;;;;;;40.38;15.25;;;;;;;;;;6082599;23;20018;-83
2022/12/21 04:53:42;;;;;;;38.45;15.35;;;;;;;;;;6094172;23;20021;-83
2022/12/21 04:56:08;;;;;;;42.22;16.10;;;;;;;;;;6070591;23;20346;-83
2022/12/21 04:58:33;;;;;;;41.20;16.20;;;;;;;;;;6094945;23;20517;-83
2022/12/21 05:00:59;;;;;;;35.33;16.23;;;;;;;;;;6070082;23;20080;-84
2022/12/21 05:03:24;;;;;;;33.15;14.90;;;;;;;;;;6070637;23;20096;-83
2022/12/21 05:05:49;;;;;;;36.42;15.50;;;;;;;;;;6069936;23;20116;-84
2022/12/21 05:08:15;;;;;;;38.40;14.93;;;;;;;;;;6070744;23;20020;-84
2022/12/21 05:10:41;;;;;;;36.05;15.50;;;;;;;;;;6069786;23;20105;-83
2022/12/21 05:13:06;;;;;;;36.88;14.48;;;;;;;;;;6121456;23;20393;-83
2022/12/21 05:15:35;;;;;;;38.65;15.77;;;;;;;;;;6069069;23;20014;-84
2022/12/21 05:18:00;;;;;;;41.13;15.48;;;;;;;;;;6070317;23;20021;-83
2022/12/21 05:20:26;;;;;;;37.03;15.52;;;;;;;;;;6069910;23;20097;-84
2022/12/21 05:22:51;;;;;;;37.38;15.32;;;;;;;;;;6070872;23;20497;-84
2022/12/21 05:25:16;;;;;;;39.00;15.45;;;;;;;;;;6070222;23;20021;-83
2022/12/21 05:27:42;;;;;;;39.33;16.05;;;;;;;;;;6094758;23;20047;-84
2022/12/21 05:30:08;;;;;;;37.25;14.95;;;;;;;;;;6052714;23;20022;-83
2022/12/21 05:32:33;;;;;;;40.50;16.30;;;;;;;;;;6093449;23;20061;-83
2022/12/21 05:34:58;;;;;;;37.40;15.23;;;;;;;;;;6070088;23;20014;-84
2022/12/21 05:37:24;;;;;;;36.40;14.95;;;;;;;;;;6069136;23;20335;-83
2022/12/21 05:39:49;;;;;;;39.38;16.77;;;;;;;;;;6070202;23;20042;-83
2022/12/21 05:42:15;;;;;;;39.25;16.52;;;;;;;;;;6070012;23;20105;-83
2022/12/21 05:44:40;;;;;;;37.65;16.23;;;;;;;;;;6071050;23;20084;-83
2022/12/21 05:47:05;;;;;;;39.22;16.83;;;;;;;;;;6094358;23;20076;-83
2022/12/21 05:49:31;;;;;;;37.13;16.02;;;;;;;;;;6094330;23;20064;-84
2022/12/21 05:51:56;;;;;;;38.22;15.70;;;;;;;;;;6092379;23;20018;-83
2022/12/21 05:54:21;;;;;;;37.47;15.43;;;;;;;;;;6068760;23;20020;-82
2022/12/21 05:56:47;;;;;;;32.63;15.70;;;;;;;;;;6052356;23;20324;-84
2022/12/21 05:59:12;;;;;;;37.35;16.45;;;;;;;;;;6069028;23;20546;-84
2022/12/21 06:01:37;;;;;;;35.25;15.70;;;;;;;;;;6068708;23;20021;-83
2022/12/21 06:04:03;;;;;;;42.13;16.50;;;;;;;;;;6068029;23;20104;-84
2022/12/21 06:06:28;;;;;;;38.05;16.25;;;;;;;;;;6067826;23;20013;-84
2022/12/21 06:08:54;;;;;;;40.92;16.80;;;;;;;;;;6092824;23;20029;-84
2022/12/21 06:11:21;;;;;;;37.75;16.45;;;;;;;;;;6068149;23;20465;-83
2022/12/21 06:13:48;;;;;;;39.88;16.05;;;;;;;;;;6068582;23;20092;-85
2022/12/21 06:16:24;;;;;;;40.58;16.63;;;;;;;;;;6068008;23;20017;-83
2022/12/21 06:18:50;;;;;;;41.72;17.23;;;;;;;;;;6068321;23;20075;-84
2022/12/21 06:21:16;;;;;;;39.22;17.00;;;;;;;;;;6091952;23;20846;-83
2022/12/21 06:23:43;;;;;;;39.03;16.30;;;;;;;;;;6068868;23;20403;-84
2022/12/21 06:26:11;;;;;;;41.03;16.52;;;;;;;;;;6067846;23;20028;-84
2022/12/21 06:28:37;;;;;;;42.15;16.40;;;;;;;;;;6068525;23;20397;-84
2022/12/21 06:31:07;;;;;;;38.13;16.70;;;;;;;;;;6092028;23;20085;-84
2022/12/21 06:33:32;;;;;;;42.90;16.80;;;;;;;;;;6092771;23;20111;-83
2022/12/21 06:35:58;;;;;;;43.70;17.98;;;;;;;;;;6067213;23;20097;-84
2022/12/21 06:38:24;;;;;;;45.30;17.70;;;;;;;;;;6068332;23;20021;-84
2022/12/21 06:40:56;;;;;;;40.08;16.75;;;;;;;;;;6067931;23;20013;-84
2022/12/21 06:43:23;;;;;;;38.20;16.40;;;;;;;;;;6092844;23;20014;-84
2022/12/21 06:46:03;;;;;;;39.03;16.83;;;;;;;;;;6035679;23;20130;-84
2022/12/21 06:48:30;;;;;;;37.40;16.25;;;;;;;;;;6066996;23;20036;-84
2022/12/21 06:51:00;;;;;;;44.53;17.83;;;;;;;;;;6067866;23;20480;-83
2022/12/21 06:53:28;;;;;;;36.95;17.48;;;;;;;;;;6045200;23;20010;-84
2022/12/21 06:56:10;;;;;;;;;;;;;;;;;;6068053;23;20013;-84
2022/12/21 06:58:36;;;;;;;37.13;15.50;;;;;;;;;;6069138;23;19913;-83
2022/12/21 07:01:10;;;;;;;42.05;17.27;;;;;;;;;;6091949;23;20418;-84
2022/12/21 07:03:36;;;;;;;36.55;17.10;;;;;;;;;;6093007;23;20101;-84
2022/12/21 07:06:02;;;;;;;39.60;17.80;;;;;;;;;;6090960;23;20050;-84
2022/12/21 07:08:28;;;;;;;34.88;16.00;;;;;;;;;;6067923;23;20009;-84
2022/12/21 07:11:02;;;;;;;40.83;16.73;;;;;;;;;;6068003;23;20096;-85
2022/12/21 07:13:28;;;;;;;37.85;16.58;;;;;;;;;;6067573;23;20021;-85
2022/12/21 07:15:55;;;;;;;38.72;16.83;;;;;;;;;;6067382;23;20506;-85
2022/12/21 07:18:20;;;;;;;42.05;17.65;;;;;;;;;;6068564;23;20454;-85
2022/12/21 07:20:46;;;;;;;44.35;17.92;;;;;;;;;;6067355;23;20018;-85
2022/12/21 07:23:11;;;;;;;40.38;16.98;;;;;;;;;;6068188;23;20097;-85
2022/12/21 07:25:37;;;;;;;38.67;17.30;;;;;;;;;;6091764;23;20020;-84
2022/12/21 07:28:02;;;;;;;38.15;16.50;;;;;;;;;;6092502;23;20459;-83
2022/12/21 07:30:28;;;;;;;40.10;16.98;;;;;;;;;;6091156;23;20089;-84
2022/12/21 07:32:54;;;;;;;44.13;18.42;;;;;;;;;;6092621;23;20005;-82
2022/12/21 07:35:23;;;;;;;42.30;17.88;;;;;;;;;;6091429;23;20034;-83
2022/12/21 07:37:49;;;;;;;39.67;18.33;;;;;;;;;;6091763;23;20548;-82
2022/12/21 07:40:18;;;;;;;40.50;18.67;;;;;;;;;;6090659;23;20073;-85
2022/12/21 07:42:45;;;;;;;40.58;18.17;;;;;;;;;;6068493;23;20022;-85
2022/12/21 07:45:11;;;;;;;41.20;18.37;;;;;;;;;;6067721;23;20010;-84
2022/12/21 07:47:36;;;;;;;45.65;18.58;;;;;;;;;;6068318;23;20025;-83
2022/12/21 07:50:03;;;;;;;45.97;18.77;;;;;;;;;;6067717;23;20018;-85
2022/12/21 07:52:30;;;;;;;44.72;17.02;;;;;;;;;;6066938;23;20044;-84
2022/12/21 07:54:55;;;;;;;38.55;17.38;;;;;;;;;;6091953;23;20370;-85
2022/12/21 07:57:21;;;;;;;40.45;18.10;;;;;;;;;;6066308;23;20026;-83
2022/12/21 07:59:46;;;;;;;36.00;17.42;;;;;;;;;;6091458;23;20734;-83
2022/12/21 08:02:11;;;;;;;41.53;18.52;;;;;;;;;;6066126;23;20140;-83
2022/12/21 08:04:37;;;;;;;40.80;17.90;;;;;;;;;;6068244;23;20022;-84
2022/12/21 08:07:02;;;;;;;43.13;18.13;;;;;;;;;;6091057;23;20021;-84
2022/12/21 08:09:27;;;;;;;41.70;18.88;;;;;;;;;;6068066;23;20013;-84
2022/12/21 08:11:53;;;;;;;47.85;17.98;;;;;;;;;;6067441;23;20038;-84
2022/12/21 08:14:18;;;;;;;35.05;16.42;;;;;;;;;;6067547;23;20101;-84
2022/12/21 08:16:44;;;;;;;40.58;17.70;;;;;;;;;;6066406;23;20026;-85
2022/12/21 08:19:09;;;;;;;39.92;17.83;;;;;;;;;;6068543;23;20010;-86
2022/12/21 08:21:34;;;;;;;38.25;17.02;;;;;;;;;;6090673;23;20020;-84
2022/12/21 08:24:00;;;;;;;44.67;18.33;;;;;;;;;;6067080;23;20080;-84
2022/12/21 08:26:25;;;;;;;42.25;16.55;;;;;;;;;;6089605;23;20391;-85
2022/12/21 08:28:50;;;;;;;37.17;17.02;;;;;;;;;;6090778;23;20037;-83
2022/12/21 08:31:18;;;;;;;40.58;17.42;;;;;;;;;;6066514;23;20014;-83
2022/12/21 08:33:45;;;;;;;42.22;17.40;;;;;;;;;;6067332;23;20097;-83
2022/12/21 08:36:12;;;;;;;39.60;17.45;;;;;;;;;;6067950;23;20022;-84
2022/12/21 08:38:38;;;;;;;41.47;18.45;;;;;;;;;;6067817;23;20021;-84
2022/12/21 08:41:03;;;;;;;44.13;18.63;;;;;;;;;;6067066;23;20025;-85
2022/12/21 08:43:29;;;;;;;35.75;16.80;;;;;;;;;;6067345;23;20319;-83
2022/12/21 08:45:54;;;;;;;39.75;17.55;;;;;;;;;;6089889;23;20022;-80
2022/12/21 08:48:20;;;;;;;37.38;18.35;;;;;;;;;;6091258;23;20010;-83
2022/12/21 08:50:52;;;;;;;37.97;17.92;;;;;;;;;;6090298;23;20085;-84
2022/12/21 08:53:17;;;;;;;43.67;17.63;;;;;;;;;;6067538;23;20350;-84
2022/12/21 08:55:42;;;;;;;40.08;17.48;;;;;;;;;;6090403;23;20014;-84
2022/12/21 08:58:08;;;;;;;36.63;16.95;;;;;;;;;;6091882;23;20390;-84
2022/12/21 09:00:33;;;;;;;30.98;15.23;;;;;;;;;;6091208;23;20742;-83
2022/12/21 09:02:59;;;;;;;38.35;18.25;;;;;;;;;;6092091;23;20755;-83
2022/12/21 09:05:25;;;;;;;39.42;17.98;;;;;;;;;;6066449;23;20358;-83
2022/12/21 09:07:50;;;;;;;45.22;18.55;;;;;;;;;;6067658;23;20022;-84
2022/12/21 09:10:16;;;;;;;37.58;17.55;;;;;;;;;;6090396;23;20010;-84
2022/12/21 09:12:41;;;;;;;38.63;17.42;;;;;;;;;;6067307;23;20339;-83
2022/12/21 09:15:07;;;;;;;38.15;17.55;;;;;;;;;;6091969;23;20017;-83
2022/12/21 09:17:33;;;;;;;34.63;16.98;;;;;;;;;;6066574;23;20018;-84
2022/12/21 09:19:58;;;;;;;36.88;16.95;;;;;;;;;;6067122;23;20022;-85
2022/12/21 09:22:25;;;;;;;37.60;16.27;;;;;;;;;;6066590;23;20096;-84
2022/12/21 09:24:50;;;;;;;35.28;16.60;;;;;;;;;;6092003;23;20088;-84
2022/12/21 09:27:16;;;;;;;34.03;16.80;;;;;;;;;;6067007;23;20532;-83
2022/12/21 09:29:41;;;;;;;37.20;17.02;;;;;;;;;;6069183;23;20018;-83
2022/12/21 09:32:07;;;;;;;32.90;15.75;;;;;;;;;;6068663;23;20025;-84
2022/12/21 09:34:37;;;;;;;33.88;16.25;;;;;;;;;;6100858;23;20016;-84
2022/12/21 09:37:02;;;;;;;29.45;15.65;;;;;;;;;;6048601;23;20505;-84
2022/12/21 09:39:28;;;;;;;31.55;16.13;;;;;;;;;;6092727;23;20021;-84
2022/12/21 09:41:58;;;;;;;34.28;16.00;;;;;;;;;;6068435;23;20423;-84
2022/12/21 09:44:32;;;;;;;32.90;16.48;;;;;;;;;;6093335;23;20398;-84
2022/12/21 09:47:00;;;;;;;35.75;16.88;;;;;;;;;;6118631;23;20068;-84
2022/12/21 09:49:33;;;;;;;35.00;17.23;;;;;;;;;;6068650;23;20530;-84
2022/12/21 09:52:00;;;;;;;36.65;17.10;;;;;;;;;;6066167;23;20018;-83
2022/12/21 09:54:37;;;;;;;30.87;16.80;;;;;;;;;;6068963;23;20018;-83
2022/12/21 09:57:04;;;;;;;34.60;16.50;;;;;;;;;;6067887;23;20563;-83
2022/12/21 09:59:29;;;;;;;33.08;16.17;;;;;;;;;;6068216;23;20852;-82
2022/12/21 10:02:14;;;;;;;34.47;15.88;;;;;;;;;;6067982;23;20053;-83
2022/12/21 10:05:01;;;;;;;29.10;15.05;;;;;;;;;;6068050;23;20029;-83
2022/12/21 10:07:45;;;;;;;36.97;16.70;;;;;;;;;;6090703;23;20319;-83
2022/12/21 10:10:31;;;;;;;32.28;15.57;;;;;;;;;;6091816;23;20061;-85
2022/12/21 10:13:05;;;;;;;30.98;15.73;;;;;;;;;;6091912;23;20032;-85
2022/12/21 10:15:54;;;;;;;33.10;16.40;;;;;;;;;;6090968;23;20497;-84
2022/12/21 10:18:33;;;;;;;36.58;16.00;;;;;;;;;;6091584;23;20450;-84
2022/12/21 10:21:17;;;;;;;29.98;15.48;;;;;;;;;;6067560;23;20024;-84
2022/12/21 10:23:48;;;;;;;30.15;15.85;;;;;;;;;;6068215;23;20018;-84
2022/12/21 10:26:16;;;;;;;29.98;15.20;;;;;;;;;;6091199;23;20020;-83
2022/12/21 10:28:59;;;;;;;32.20;15.18;;;;;;;;;;6068361;23;20022;-84
2022/12/21 10:31:27;;;;;;;31.88;16.55;;;;;;;;;;6066666;23;20025;-84
2022/12/21 10:33:55;;;;;;;36.28;16.00;;;;;;;;;;6068115;23;20022;-83
2022/12/21 10:36:22;;;;;;;;;;;;;;;;;;6091965;23;20347;-84
2022/12/21 10:38:47;;;;;;;28.98;14.20;;;;;;;;;;6092608;23;19943;-83
2022/12/21 10:41:20;;;;;;;30.38;14.10;;;;;;;;;;6067015;23;20014;-84
2022/12/21 10:43:48;;;;;;;31.17;15.23;;;;;;;;;;6067572;23;20532;-84
2022/12/21 10:46:15;;;;;;;32.42;16.05;;;;;;;;;;6090694;23;20072;-84
2022/12/21 10:48:40;;;;;;;29.10;15.60;;;;;;;;;;6118477;23;20340;-85
2022/12/21 10:51:28;;;;;;;27.88;15.23;;;;;;;;;;6067043;23;20012;-84
2022/12/21 10:53:59;;;;;;;32.70;15.75;;;;;;;;;;6066667;23;20030;-84
2022/12/21 10:56:25;;;;;;;29.92;15.23;;;;;;;;;;6067274;23;20018;-84
2022/12/21 10:58:52;;;;;;;28.33;15.23;;;;;;;;;;6067653;23;20018;-83
2022/12/21 11:01:26;;;;;;;28.23;15.75;;;;;;;;;;6066565;23;20018;-84
2022/12/21 11:04:06;;;;;;;31.58;16.30;;;;;;;;;;6068215;23;20029;-84
2022/12/21 11:06:32;;;;;;;28.73;15.25;;;;;;;;;;6067316;23;20062;-85
2022/12/21 11:08:57;;;;;;;29.58;15.57;;;;;;;;;;6068254;23;20533;-84
2022/12/21 11:11:37;;;;;;;29.42;16.00;;;;;;;;;;6067089;23;20033;-84
2022/12/21 11:14:14;;;;;;;29.67;15.57;;;;;;;;;;6067673;23;20386;-84
2022/12/21 11:16:40;;;;;;;25.65;14.63;;;;;;;;;;6090783;23;20089;-85
2022/12/21 11:19:09;;;;;;;30.40;16.25;;;;;;;;;;6067232;23;20053;-84
2022/12/21 11:21:39;;;;;;;32.15;15.60;;;;;;;;;;6066122;23;20025;-84
2022/12/21 11:24:19;;;;;;;42.10;16.17;;;;;;;;;;6067718;23;20010;-84
2022/12/21 11:26:48;;;;;;;34.90;16.25;;;;;;;;;;6090527;23;20382;-84
2022/12/21 11:29:24;;;;;;;26.98;14.88;;;;;;;;;;6067052;23;20406;-84
2022/12/21 11:31:51;;;;;;;30.95;16.30;;;;;;;;;;6066378;23;20445;-84
2022/12/21 11:34:39;;;;;;;31.40;15.75;;;;;;;;;;6030086;23;20096;-84
2022/12/21 11:37:31;;;;;;;29.38;15.88;;;;;;;;;;6066421;23;20083;-84
2022/12/21 11:39:58;;;;;;;27.83;16.17;;;;;;;;;;6066931;23;20021;-85
2022/12/21 11:42:25;;;;;;;31.67;15.68;;;;;;;;;;6090588;23;20022;-85
2022/12/21 11:45:03;;;;;;;31.38;16.15;;;;;;;;;;6090980;23;20022;-84
2022/12/21 11:47:53;;;;;;;30.02;15.80;;;;;;;;;;6090389;23;20430;-85
2022/12/21 11:50:29;;;;;;;27.60;14.85;;;;;;;;;;6090265;23;20017;-84
2022/12/21 11:53:16;;;;;;;29.88;15.60;;;;;;;;;;6067485;23;20411;-83
2022/12/21 11:56:14;;;;;;;26.10;14.90;;;;;;;;;;6066777;23;20010;-84
2022/12/21 11:59:00;;;;;;;26.63;14.95;;;;;;;;;;6116969;23;20025;-86
2022/12/21 12:01:47;;;;;;;30.02;15.85;;;;;;;;;;6088775;23;20395;-86
2022/12/21 12:04:19;;;;;;;28.25;14.32;;;;;;;;;;6089735;23;20018;-86
2022/12/21 12:06:45;;;;;;;32.70;16.33;;;;;;;;;;6089504;23;20026;-85
2022/12/21 12:09:25;;;;;;;27.65;15.60;;;;;;;;;;6091451;23;20014;-85
2022/12/21 12:12:13;;;;;;;31.40;15.10;;;;;;;;;;6089456;23;20566;-85
2022/12/21 12:14:38;;;;;;;;;;;;;;;;;;6067884;23;20068;-85
2022/12/21 12:17:28;;;;;;;30.67;15.07;;;;;;;;;;6089976;23;19995;-85
2022/12/21 12:20:02;;;;;;;30.38;14.85;;;;;;;;;;6087509;23;21021;-85
2022/12/21 12:22:37;;;;;;;30.90;15.38;;;;;;;;;;6089702;23;20010;-85
2022/12/21 12:25:34;;;;;;;29.45;15.80;;;;;;;;;;6089490;23;20052;-85
2022/12/21 12:28:24;;;;;;;30.10;15.85;;;;;;;;;;6064673;23;20136;-85
2022/12/21 12:30:55;;;;;;;28.60;15.00;;;;;;;;;;6064332;23;20022;-84
2022/12/21 12:33:29;;;;;;;29.85;15.48;;;;;;;;;;6089437;23;20068;-84
2022/12/21 12:36:09;;;;;;;31.15;15.32;;;;;;;;;;6088860;23;20018;-85
2022/12/21 12:38:41;;;;;;;31.73;16.35;;;;;;;;;;6090277;23;20085;-85
2022/12/21 12:41:19;;;;;;;30.40;14.43;;;;;;;;;;6087909;23;20332;-85
2022/12/21 12:43:52;;;;;;;29.13;15.55;;;;;;;;;;6089368;23;20028;-85
2022/12/21 12:46:26;;;;;;;28.88;14.88;;;;;;;;;;6065112;23;20346;-85
2022/12/21 12:49:33;;;;;;;30.00;15.10;;;;;;;;;;6114857;23;20513;-84
2022/12/21 12:52:26;;;;;;;26.13;14.68;;;;;;;;;;6072288;23;20029;-85
2022/12/21 12:55:07;;;;;;;26.63;14.73;;;;;;;;;;6059423;23;20375;-85
2022/12/21 12:58:06;;;;;;;28.98;15.07;;;;;;;;;;6080859;23;20037;-85
2022/12/21 13:00:43;;;;;;;27.50;14.27;;;;;;;;;;6075083;23;20882;-85
2022/12/21 13:03:24;;;;;;;26.87;14.80;;;;;;;;;;6066979;23;20126;-85
2022/12/21 13:06:17;;;;;;;26.13;14.70;;;;;;;;;;6090511;23;20052;-86
2022/12/21 13:08:57;;;;;;;30.40;15.40;;;;;;;;;;6103891;23;20028;-84
2022/12/21 13:11:43;;;;;;;30.05;14.80;;;;;;;;;;6091630;23;20096;-86
2022/12/21 13:14:28;;;;;;;30.05;15.02;;;;;;;;;;6069253;23;20089;-86
2022/12/21 13:17:01;;;;;;;25.48;14.05;;;;;;;;;;6067750;23;20030;-86
2022/12/21 13:19:30;;;;;;;28.02;15.15;;;;;;;;;;6069332;23;20093;-86
2022/12/21 13:22:04;;;;;;;30.67;14.88;;;;;;;;;;6092148;23;20119;-86
2022/12/21 13:24:42;;;;;;;29.23;15.32;;;;;;;;;;6091482;23;20041;-85
2022/12/21 13:27:37;;;;;;;28.33;14.57;;;;;;;;;;6090772;23;20013;-85
2022/12/21 13:30:10;;;;;;;28.35;14.93;;;;;;;;;;6115957;23;20021;-86
2022/12/21 13:32:38;;;;;;;26.33;14.55;;;;;;;;;;6055690;23;20021;-85
2022/12/21 13:35:03;;;;;;;;;;;;;;;;;;6092578;23;20488;-85
2022/12/21 13:37:29;;;;;;;26.85;14.43;;;;;;;;;;6116598;23;19920;-84
2022/12/21 13:40:14;;;;;;;27.90;14.50;;;;;;;;;;6068428;23;20458;-84
2022/12/21 13:42:47;;;;;;;26.83;14.82;;;;;;;;;;6091543;23;20044;-85
2022/12/21 13:45:20;;;;;;;29.77;15.20;;;;;;;;;;6092689;23;20037;-85
2022/12/21 13:47:46;;;;;;;27.50;15.07;;;;;;;;;;6091051;23;20702;-84
2022/12/21 13:50:19;;;;;;;27.40;14.93;;;;;;;;;;6091334;23;20018;-85
2022/12/21 13:52:50;;;;;;;27.70;14.80;;;;;;;;;;6092031;23;20029;-85
2022/12/21 13:55:47;;;;;;;27.55;14.52;;;;;;;;;;6067581;23;20658;-84
2022/12/21 13:58:31;;;;;;;25.60;14.13;;;;;;;;;;6050593;23;20017;-85
2022/12/21 14:01:11;;;;;;;23.88;13.35;;;;;;;;;;6089298;23;20471;-85
2022/12/21 14:04:07;;;;;;;24.63;14.13;;;;;;;;;;6091090;23;20026;-85
2022/12/21 14:06:55;;;;;;;26.13;13.13;;;;;;;;;;6066466;23;20060;-84
2022/12/21 14:09:36;;;;;;;28.42;14.07;;;;;;;;;;6075612;23;20041;-86
2022/12/21 14:12:43;;;;;;;24.17;13.18;;;;;;;;;;6115679;23;20037;-83
2022/12/21 14:15:42;;;;;;;28.02;14.43;;;;;;;;;;6019451;23;20006;-83
2022/12/21 14:18:11;;;;;;;22.50;13.23;;;;;;;;;;6091020;23;20414;-83
2022/12/21 14:20:37;;;;;;;25.52;13.82;;;;;;;;;;6090997;23;20097;-84
2022/12/21 14:23:13;;;;;;;26.05;12.95;;;;;;;;;;6067137;23;20018;-83
2022/12/21 14:25:43;;;;;;;26.35;12.95;;;;;;;;;;6066830;23;20009;-83
2022/12/21 14:28:14;;;;;;;24.42;13.13;;;;;;;;;;6091265;23;20028;-83
2022/12/21 14:30:48;;;;;;;24.85;13.00;;;;;;;;;;6116345;23;20096;-83
2022/12/21 14:33:17;;;;;;;27.30;12.63;;;;;;;;;;6066947;23;20014;-83
2022/12/21 14:36:03;;;;;;;25.42;13.30;;;;;;;;;;6090510;23;20037;-83
2022/12/21 14:38:28;;;;;;;23.88;13.77;;;;;;;;;;5998981;23;20020;-83
2022/12/21 14:40:59;;;;;;;24.80;13.45;;;;;;;;;;5975524;23;20024;-82
2022/12/21 14:43:24;;;;;;;26.42;14.18;;;;;;;;;;5953366;23;20019;-83
2022/12/21 14:45:50;;;;;;;25.10;13.40;;;;;;;;;;5998856;23;20961;-83
2022/12/21 14:48:28;;;;;;;27.48;12.85;;;;;;;;;;5952112;23;20079;-84
2022/12/21 14:51:01;;;;;;;;;;;;;;;;;;5975154;23;20019;-84
2022/12/21 14:53:26;;;;;;;20.88;11.70;;;;;;;;;;5974540;23;19910;-83
2022/12/21 14:56:18;;;;;;;20.83;11.73;;;;;;;;;;5974302;23;20015;-82
2022/12/21 14:58:45;;;;;;;20.65;12.40;;;;;;;;;;5947997;23;20027;-83
2022/12/21 15:01:13;;;;;;;25.85;13.25;;;;;;;;;;5952838;23;20019;-83
2022/12/21 15:03:41;;;;;;;21.02;12.55;;;;;;;;;;5974953;23;20024;-84